Terminal Aerodrome Forecast
Issued by NWS

Home | Current Version | Previous Version | Text Only | Print | Product List | Glossary Off
Versions: 1 2 3 4 5 6 7 8 9 10 11 12 13 14 15 16 17 18 19 20 21 22 23 24

174
FTUS43 KLOT 221509 AAA
TAFMDW
TAF AMD
KMDW 221509Z 2215/2318 08007KT P6SM SCT120 OVC250
     FM221600 06012KT P6SM BKN250
     FM230200 06007KT P6SM BKN250
     FM231500 05010KT P6SM OVC120=

USA.gov is the U.S. government's official web portal to all federal, state and local government web resources and services.